createdAt,value
2018-02-27T00:00:51.830Z,9.07
2018-02-27T00:03:21.281Z,9.25
2018-02-27T00:05:50.727Z,9.45
2018-02-27T00:08:25.714Z,8.15
2018-02-27T00:10:55.538Z,8.77
2018-02-27T00:13:25.225Z,8.80
2018-02-27T00:15:55.052Z,8.65
2018-02-27T00:18:24.978Z,9.45
2018-02-27T00:20:55.604Z,8.88
2018-02-27T00:23:25.548Z,9.18
2018-02-27T00:25:55.339Z,8.73
2018-02-27T00:28:25.711Z,8.95
2018-02-27T00:30:56.333Z,8.75
2018-02-27T00:33:26.487Z,8.45
2018-02-27T00:35:56.178Z,8.77
2018-02-27T00:38:26.057Z,9.27
2018-02-27T00:40:55.878Z,9.50
2018-02-27T00:43:25.464Z,10.20
2018-02-27T00:45:56.326Z,8.80
2018-02-27T00:48:26.326Z,9.73
2018-02-27T00:50:56.956Z,10.15
2018-02-27T00:53:27.549Z,9.68
2018-02-27T00:55:57.356Z,10.55
2018-02-27T00:58:27.214Z,10.07
2018-02-27T01:00:57.757Z,9.05
2018-02-27T01:03:27.464Z,10.20
2018-02-27T01:05:57.184Z,8.68
2018-02-27T01:08:27.305Z,10.38
2018-02-27T01:10:57.167Z,11.00
2018-02-27T01:13:26.933Z,9.05
2018-02-27T01:15:56.536Z,10.32
2018-02-27T01:18:26.278Z,9.55
2018-02-27T01:20:55.760Z,10.45
2018-02-27T01:23:25.305Z,10.15
2018-02-27T01:25:54.857Z,9.10
2018-02-27T01:28:25.584Z,9.98
2018-02-27T01:30:55.281Z,9.48
2018-02-27T01:33:25.577Z,9.02
2018-02-27T01:35:55.612Z,9.10
2018-02-27T01:38:26.015Z,8.57
2018-02-27T01:40:55.542Z,9.70
2018-02-27T01:43:25.869Z,8.70
2018-02-27T01:45:56.382Z,8.82
2018-02-27T01:48:25.881Z,8.48
2018-02-27T01:51:04.238Z,9.27
2018-02-27T01:53:33.603Z,7.90
2018-02-27T01:56:03.823Z,9.05
2018-02-27T01:58:33.018Z,9.30
2018-02-27T02:01:02.278Z,9.02
2018-02-27T02:03:32.476Z,8.20
2018-02-27T02:06:03.490Z,8.27
2018-02-27T02:08:33.644Z,9.27
2018-02-27T02:11:03.311Z,9.27
2018-02-27T02:13:33.364Z,8.75
2018-02-27T02:16:02.648Z,7.43
2018-02-27T02:18:32.571Z,9.68
2018-02-27T02:21:01.904Z,9.70
2018-02-27T02:23:31.184Z,8.05
2018-02-27T02:26:00.345Z,9.13
2018-02-27T02:28:30.501Z,8.00
2018-02-27T02:30:59.569Z,10.27
2018-02-27T02:33:29.769Z,9.07
2018-02-27T09:59:10.115Z,5.82
2018-02-27T10:01:39.737Z,5.85
2018-02-27T10:04:09.529Z,5.22
2018-02-27T10:06:39.770Z,5.45
2018-02-27T10:09:09.293Z,6.22
2018-02-27T10:11:38.799Z,6.35
2018-02-27T10:14:09.357Z,5.22
2018-02-27T10:16:38.923Z,5.80
2018-02-27T10:19:09.879Z,6.07
2018-02-27T10:21:40.306Z,5.15
2018-02-27T10:24:09.930Z,7.05
2018-02-27T10:26:39.638Z,5.80
2018-02-27T10:29:09.926Z,5.43
2018-02-27T10:31:40.488Z,5.65
2018-02-27T10:34:10.177Z,6.40
2018-02-27T10:36:40.721Z,8.80
2018-02-27T10:39:10.361Z,6.32
2018-02-27T10:41:45.400Z,4.97
2018-02-27T10:44:15.659Z,4.80
2018-02-27T10:46:45.352Z,6.45
2018-02-27T10:49:15.248Z,10.45
2018-02-27T10:51:44.930Z,5.78
2018-02-27T10:54:14.807Z,4.62
2018-02-27T10:56:44.444Z,5.85
2018-02-27T10:59:13.880Z,4.90
2018-02-27T11:01:43.929Z,4.37
2018-02-27T11:04:13.662Z,8.60
2018-02-27T11:06:43.986Z,6.95
2018-02-27T11:09:14.608Z,6.57
2018-02-27T11:11:50.009Z,15.68
2018-02-27T11:14:20.331Z,8.07
2018-02-27T11:16:49.905Z,9.52
2018-02-27T11:19:19.649Z,4.12
2018-02-27T11:21:50.108Z,4.82
2018-02-27T11:24:19.553Z,4.78
2018-02-27T11:26:49.167Z,6.55
2018-02-27T11:29:19.073Z,5.00
2018-02-27T11:31:49.256Z,4.95
2018-02-27T11:34:19.121Z,3.60
2018-02-27T11:36:48.832Z,5.32
2018-02-27T11:39:18.588Z,4.55
2018-02-27T11:41:48.390Z,5.53
2018-02-27T11:44:17.908Z,4.93
2018-02-27T11:46:47.430Z,4.80
2018-02-27T11:49:17.852Z,5.60
2018-02-27T11:51:48.079Z,5.07
2018-02-27T11:54:18.896Z,4.57
2018-02-27T11:56:49.289Z,5.65
2018-02-27T11:59:19.337Z,4.07
2018-02-27T12:01:49.042Z,4.20
2018-02-27T12:04:18.498Z,4.90
2018-02-27T12:06:48.419Z,3.85
2018-02-27T12:09:18.145Z,4.18
2018-02-27T12:11:49.357Z,4.90
2018-02-27T12:14:20.400Z,4.90
2018-02-27T12:16:51.174Z,4.15
2018-02-27T12:19:20.952Z,9.10
2018-02-27T12:21:50.718Z,3.80
2018-02-27T12:24:29.278Z,4.22
2018-02-27T12:26:59.679Z,4.03
2018-02-27T12:29:32.961Z,4.05
2018-02-27T12:32:02.684Z,5.47
2018-02-27T12:34:32.278Z,4.53
2018-02-27T12:37:02.703Z,3.90
2018-02-27T12:39:33.309Z,3.97
2018-02-27T12:42:02.981Z,3.30
2018-02-27T12:44:32.648Z,3.60
2018-02-27T12:47:02.489Z,5.70
2018-02-27T12:49:32.988Z,3.95
2018-02-27T12:52:03.312Z,3.42
2018-02-27T12:54:32.972Z,3.97
2018-02-27T12:57:02.329Z,3.10
2018-02-27T12:59:31.809Z,4.05
2018-02-27T13:02:07.893Z,5.28
2018-02-27T13:04:38.374Z,3.55
2018-02-27T13:07:07.921Z,3.10
2018-02-27T13:09:37.641Z,3.87
2018-02-27T13:12:07.372Z,3.50
2018-02-27T13:14:37.566Z,3.85
2018-02-27T13:17:07.002Z,3.10
2018-02-27T13:19:37.429Z,2.92
2018-02-27T13:22:07.640Z,3.33
2018-02-27T13:24:58.838Z,3.47
2018-02-27T13:27:28.729Z,4.47
2018-02-27T13:29:58.390Z,5.03
2018-02-27T13:32:27.935Z,3.33
2018-02-27T13:34:58.272Z,3.50
2018-02-27T13:37:27.835Z,3.50
2018-02-27T13:39:57.305Z,2.80
2018-02-27T13:42:27.403Z,3.08
2018-02-27T13:44:56.909Z,2.70
2018-02-27T13:47:26.368Z,2.72
2018-02-27T13:49:55.837Z,6.28
2018-02-27T13:52:26.002Z,4.90
2018-02-27T13:54:56.339Z,4.30
2018-02-27T13:57:26.431Z,3.72
2018-02-27T13:59:55.810Z,2.70
2018-02-27T14:02:26.081Z,3.00
2018-02-27T14:04:55.677Z,2.90
2018-02-27T14:07:25.362Z,2.35
2018-02-27T14:09:54.870Z,3.50
2018-02-27T14:12:25.546Z,3.70
2018-02-27T14:14:55.115Z,3.75
2018-02-27T14:17:24.953Z,2.87
2018-02-27T14:19:54.416Z,2.90
2018-02-27T14:22:25.136Z,2.83
2018-02-27T14:24:55.601Z,3.00
2018-02-27T14:27:25.191Z,2.85
2018-02-27T14:29:55.452Z,2.60
2018-02-27T14:32:25.682Z,2.65
2018-02-27T14:34:55.262Z,2.60
2018-02-27T14:37:24.729Z,3.10
2018-02-27T14:39:55.149Z,2.47
2018-02-27T14:42:25.764Z,2.53
2018-02-27T14:44:55.820Z,3.67
2018-02-27T14:47:26.332Z,3.70
2018-02-27T14:49:56.629Z,2.65
2018-02-27T14:52:26.454Z,2.65
2018-02-27T14:55:01.505Z,2.35
2018-02-27T14:57:31.741Z,2.65
2018-02-27T15:00:01.557Z,2.60
2018-02-27T15:02:31.913Z,3.05
2018-02-27T15:05:01.588Z,2.80
2018-02-27T15:07:31.112Z,2.95
2018-02-27T15:10:00.477Z,4.30
2018-02-27T15:12:30.608Z,2.50
2018-02-27T15:15:00.253Z,2.67
2018-02-27T15:17:29.614Z,2.83
2018-02-27T15:19:59.716Z,3.75
2018-02-27T15:22:29.232Z,3.00
2018-02-27T15:25:00.501Z,3.30
2018-02-27T15:27:30.064Z,3.78
2018-02-27T15:30:30.034Z,3.15
2018-02-27T15:32:59.401Z,3.22
2018-02-27T15:35:30.284Z,3.30
2018-02-27T15:37:59.734Z,3.95
2018-02-27T15:40:29.145Z,3.60
2018-02-27T15:42:59.415Z,3.90
2018-02-27T15:45:29.631Z,4.00
2018-02-27T15:47:59.073Z,3.80
2018-02-27T15:50:29.308Z,4.12
2018-02-27T15:52:59.528Z,3.50
2018-02-27T15:55:29.774Z,3.90
2018-02-27T15:57:59.380Z,4.30
2018-02-27T16:00:28.858Z,4.65
2018-02-27T16:02:58.349Z,3.80
2018-02-27T16:05:27.893Z,3.80
2018-02-27T16:07:57.637Z,4.25
2018-02-27T16:10:27.317Z,4.50
2018-02-27T16:12:56.758Z,3.80
2018-02-27T16:15:26.294Z,5.20
2018-02-27T16:17:55.863Z,4.45
2018-02-27T16:20:25.382Z,3.72
2018-02-27T16:22:55.849Z,4.40
2018-02-27T16:25:26.113Z,4.15
2018-02-27T16:27:55.841Z,3.80
2018-02-27T16:30:26.220Z,4.35
2018-02-27T16:32:56.725Z,4.60
2018-02-27T16:35:27.369Z,5.10
2018-02-27T16:37:57.690Z,4.65
2018-02-27T16:40:28.137Z,5.40
2018-02-27T16:42:57.862Z,5.15
2018-02-27T16:45:27.535Z,4.12
2018-02-27T16:48:59.297Z,4.50
2018-02-27T16:51:29.970Z,4.32
2018-02-27T16:53:59.574Z,3.72
2018-02-27T16:56:29.205Z,4.20
2018-02-27T16:58:58.777Z,4.03
2018-02-27T17:01:28.375Z,4.47
2018-02-27T17:03:58.032Z,3.85
2018-02-27T17:06:27.531Z,4.40
2018-02-27T17:09:02.547Z,5.80
2018-02-27T17:11:32.020Z,5.57
2018-02-27T17:14:02.256Z,5.40
2018-02-27T17:16:32.109Z,5.18
2018-02-27T17:19:01.639Z,5.47
2018-02-27T17:21:32.665Z,6.93
2018-02-27T17:24:03.697Z,5.80
2018-02-27T17:26:34.114Z,5.68
2018-02-27T17:29:05.888Z,6.37
2018-02-27T17:31:40.666Z,6.25
2018-02-27T17:34:10.152Z,6.62
2018-02-27T17:36:40.186Z,6.37
2018-02-27T17:39:10.454Z,6.70
2018-02-27T17:41:39.816Z,6.22
2018-02-27T17:44:09.939Z,6.00
2018-02-27T17:46:39.303Z,9.95
2018-02-27T17:49:09.458Z,7.07
2018-02-27T17:51:38.985Z,7.87
2018-02-27T17:54:08.499Z,7.93
2018-02-27T17:56:37.858Z,9.40
2018-02-27T17:59:08.076Z,12.80
2018-02-27T18:01:38.146Z,14.30
2018-02-27T18:05:26.895Z,12.23
2018-02-27T18:07:56.763Z,11.20
2018-02-27T18:10:27.274Z,8.10
2018-02-27T18:12:56.868Z,8.50
2018-02-27T18:15:26.514Z,8.85
2018-02-27T18:17:56.720Z,7.90
2018-02-27T18:20:26.143Z,8.57
2018-02-27T18:22:56.919Z,10.38
2018-02-27T18:25:26.550Z,12.50
2018-02-27T18:27:57.031Z,12.55
2018-02-27T18:30:26.496Z,12.65
2018-02-27T18:32:56.002Z,13.05
2018-02-27T18:35:25.347Z,15.05
2018-02-27T18:37:54.910Z,13.82
2018-02-27T18:40:24.396Z,16.80
2018-02-27T18:42:53.778Z,14.23
2018-02-27T18:45:23.186Z,12.88
2018-02-27T18:47:53.478Z,14.93
2018-02-27T18:50:22.826Z,12.32
2018-02-27T18:52:56.846Z,13.02
2018-02-27T18:55:29.302Z,13.25
2018-02-27T18:57:58.732Z,13.30
2018-02-27T19:00:28.320Z,13.85
2018-02-27T19:02:57.888Z,16.90
2018-02-27T19:05:27.391Z,17.40
2018-02-27T19:07:56.989Z,17.02
2018-02-27T19:10:27.885Z,22.65
2018-02-27T19:12:57.534Z,16.90
2018-02-27T19:15:28.282Z,15.23
2018-02-27T19:18:01.231Z,14.65
2018-02-27T19:20:31.534Z,15.55
2018-02-27T19:23:00.971Z,14.85
2018-02-27T19:25:31.203Z,13.88
2018-02-27T19:28:00.649Z,12.80
2018-02-27T19:30:30.066Z,12.13
2018-02-27T19:32:59.466Z,14.80
2018-02-27T19:35:29.733Z,12.68
2018-02-27T19:37:59.231Z,15.35
2018-02-27T19:40:28.671Z,13.77
2018-02-27T19:42:58.411Z,14.90
2018-02-27T19:45:27.830Z,13.82
2018-02-27T19:48:03.502Z,13.27
2018-02-27T19:50:33.039Z,12.15
2018-02-27T19:53:02.449Z,11.63
2018-02-27T19:55:31.890Z,10.60
2018-02-27T19:58:02.043Z,10.73
2018-02-27T20:00:32.089Z,11.55
2018-02-27T20:03:04.690Z,11.50
2018-02-27T20:05:34.151Z,11.80
2018-02-27T20:08:03.644Z,10.48
2018-02-27T20:10:33.207Z,10.85
2018-02-27T20:13:03.118Z,13.00
2018-02-27T20:15:32.603Z,13.45
2018-02-27T20:18:06.135Z,13.20
2018-02-27T20:20:36.317Z,12.02
2018-02-27T20:23:09.866Z,12.00
2018-02-27T20:25:40.086Z,11.50
2018-02-27T20:28:15.531Z,12.18
2018-02-27T20:30:45.726Z,11.12
2018-02-27T20:33:15.174Z,11.27
2018-02-27T20:35:44.603Z,10.27
2018-02-27T20:38:14.455Z,10.32
2018-02-27T20:40:43.889Z,10.95
2018-02-27T20:43:13.222Z,10.20
2018-02-27T20:45:42.550Z,9.02
2018-02-27T20:48:12.673Z,9.15
2018-02-27T20:50:42.255Z,8.57
2018-02-27T20:53:11.791Z,9.13
2018-02-27T20:55:41.830Z,8.10
2018-02-27T20:58:26.268Z,8.50
2018-02-27T21:00:55.689Z,9.35
2018-02-27T21:03:25.122Z,8.85
2018-02-27T21:05:54.556Z,8.70
2018-02-27T21:08:23.867Z,8.95
2018-02-27T21:10:54.038Z,9.43
2018-02-27T21:13:23.525Z,8.82
2018-02-27T21:15:52.889Z,10.20
2018-02-27T21:18:27.709Z,9.57
2018-02-27T21:20:57.186Z,8.85
2018-02-27T21:23:26.864Z,7.82
2018-02-27T21:25:57.001Z,9.55
2018-02-27T21:28:26.464Z,8.48
2018-02-27T21:30:56.820Z,9.00
2018-02-27T21:33:26.223Z,9.45
2018-02-27T21:35:55.637Z,10.40
2018-02-27T21:38:25.111Z,9.80
2018-02-27T21:40:55.326Z,10.10
2018-02-27T21:43:25.566Z,10.65
2018-02-27T21:45:54.985Z,10.80
2018-02-27T21:48:24.588Z,11.43
2018-02-27T21:50:54.294Z,9.60
2018-02-27T21:53:23.670Z,8.75
2018-02-27T21:55:54.058Z,10.07
2018-02-27T21:58:23.517Z,8.40
2018-02-27T22:00:53.648Z,7.97
2018-02-27T22:03:23.146Z,8.75
2018-02-27T22:05:52.684Z,5.70
2018-02-27T22:08:22.248Z,7.60
2018-02-27T22:10:52.540Z,6.50
2018-02-27T22:13:21.845Z,6.35
2018-02-27T22:15:51.256Z,6.32
2018-02-27T22:18:20.572Z,6.30
2018-02-27T22:20:50.894Z,5.97
2018-02-27T22:23:21.105Z,6.35
2018-02-27T22:25:51.522Z,5.85
2018-02-27T22:28:52.654Z,6.60
2018-02-27T22:31:22.378Z,5.55
2018-02-27T22:33:52.332Z,6.20
2018-02-27T22:36:23.657Z,6.90
2018-02-27T22:38:53.961Z,6.50
2018-02-27T22:41:23.603Z,5.87
2018-02-27T22:43:53.215Z,6.50
2018-02-27T22:46:22.720Z,6.70
2018-02-27T22:48:52.591Z,6.05
2018-02-27T22:51:26.267Z,6.60
2018-02-27T22:53:56.106Z,7.07
2018-02-27T22:56:25.480Z,6.47
2018-02-27T22:58:55.332Z,6.22
2018-02-27T23:01:25.074Z,6.15
2018-02-27T23:03:54.588Z,6.60
2018-02-27T23:06:24.228Z,6.10
2018-02-27T23:08:53.804Z,6.80
2018-02-27T23:11:23.512Z,7.30
2018-02-27T23:13:53.167Z,7.15
2018-02-27T23:16:23.545Z,7.00
2018-02-27T23:18:52.998Z,6.68
2018-02-27T23:21:22.737Z,6.20
2018-02-27T23:24:00.120Z,6.85
2018-02-27T23:26:45.145Z,7.10
2018-02-27T23:29:25.476Z,7.37
2018-02-27T23:31:59.908Z,6.80
2018-02-27T23:35:05.328Z,7.28
2018-02-27T23:37:35.830Z,7.28
2018-02-27T23:40:06.435Z,7.18
2018-02-27T23:42:36.200Z,6.85
2018-02-27T23:45:05.889Z,8.60
2018-02-27T23:47:35.820Z,8.18
2018-02-27T23:50:06.289Z,6.60
2018-02-27T23:52:36.390Z,7.45
2018-02-27T23:55:05.912Z,7.30
2018-02-27T23:57:35.646Z,8.02
